Time;durP1;ratioP1;P1;durP2;ratioP2;P2;SDS_P1;SDS_P2;PMS_P1;PMS_P2;Temp;Humidity;BMP_temperature;BMP_pressure;BME280_temperature;BME280_humidity;BME280_pressure;Samples;Min_cycle;Max_cycle;Signal;HPM_P1;HPM_P2
2022/10/15 00:02:01;;;;;;;;;;;;;;;;;;4973321;28;19916;-78
2022/10/15 00:04:47;;;;;;;;;;;;;;;;;;4976377;28;19921;-76
2022/10/15 00:07:34;;;;;;;;;;;;;;;;;;4985137;28;19913;-78
2022/10/15 00:10:20;;;;;;;;;;;;;;;;;;4980477;28;20284;-79
2022/10/15 00:13:07;;;;;;;;;;;;;;;;;;4989501;28;19922;-78
2022/10/15 00:15:53;;;;;;;;;;;;;;;;;;4978246;28;19939;-78
2022/10/15 00:18:40;;;;;;;;;;;;;;;;;;4967940;28;20004;-78
2022/10/15 00:21:26;;;;;;;;;;;;;;;;;;4974395;28;19940;-78
2022/10/15 00:24:13;;;;;;;;;;;;;;;;;;4979243;28;20363;-78
2022/10/15 00:26:59;;;;;;;;;;;;;;;;;;4973354;28;19913;-78
2022/10/15 00:29:46;;;;;;;;;;;;;;;;;;4985064;28;19940;-78
2022/10/15 00:32:32;;;;;;;;;;;;;;;;;;4977858;28;19921;-78
2022/10/15 00:35:19;;;;;;;;;;;;;;;;;;4986509;28;19917;-78
2022/10/15 00:38:05;;;;;;;;;;;;;;;;;;4989407;28;19913;-78
2022/10/15 00:40:52;;;;;;;;;;;;;;;;;;4969923;28;19918;-78
2022/10/15 00:43:38;;;;;;;;;;;;;;;;;;4988264;28;19913;-79
2022/10/15 00:46:25;;;;;;;;;;;;;;;;;;4970824;28;19926;-79
2022/10/15 00:49:11;;;;;;;;;;;;;;;;;;4979057;28;19914;-78
2022/10/15 00:51:58;;;;;;;;;;;;;;;;;;4961712;28;19961;-78
2022/10/15 00:54:44;;;;;;;;;;;;;;;;;;4988236;28;19925;-78
2022/10/15 00:57:32;;;;;;;;;;;;;;;;;;4984253;28;19917;-78
2022/10/15 01:00:18;;;;;;;;;;;;;;;;;;4980857;28;19914;-78
2022/10/15 01:03:04;;;;;;;;;;;;;;;;;;4990162;28;19914;-79
2022/10/15 01:05:51;;;;;;;;;;;;;;;;;;4991976;28;19921;-78
2022/10/15 01:08:37;;;;;;;;;;;;;;;;;;4979615;28;20249;-78
2022/10/15 01:11:24;;;;;;;;;;;;;;;;;;4975663;28;19923;-78
2022/10/15 01:14:10;;;;;;;;;;;;;;;;;;4981854;28;19979;-78
2022/10/15 01:16:57;;;;;;;;;;;;;;;;;;4974237;28;19918;-78
2022/10/15 01:19:43;;;;;;;;;;;;;;;;;;4988521;28;19913;-77
2022/10/15 01:22:30;;;;;;;;;;;;;;;;;;4973422;28;19924;-78
2022/10/15 01:25:16;;;;;;;;;;;;;;;;;;4986980;28;20379;-77
2022/10/15 01:28:03;;;;;;;;;;;;;;;;;;4984186;28;19929;-78
2022/10/15 01:30:49;;;;;;;;;;;;;;;;;;4991692;28;19910;-78
2022/10/15 01:33:36;;;;;;;;;;;;;;;;;;4983546;28;20324;-78
2022/10/15 01:36:22;;;;;;;;;;;;;;;;;;4986816;28;19914;-79
2022/10/15 01:39:09;;;;;;;;;;;;;;;;;;4996363;28;19914;-78
2022/10/15 01:41:55;;;;;;;;;;;;;;;;;;4970456;28;19924;-78
2022/10/15 01:44:41;;;;;;;;;;;;;;;;;;4998894;28;19920;-79
2022/10/15 01:47:28;;;;;;;;;;;;;;;;;;4999697;28;19914;-78
2022/10/15 01:50:15;;;;;;;;;;;;;;;;;;4980264;28;19913;-79
2022/10/15 01:53:01;;;;;;;;;;;;;;;;;;4979893;28;19922;-78
2022/10/15 01:55:48;;;;;;;;;;;;;;;;;;4979873;28;19910;-79
2022/10/15 01:58:34;;;;;;;;;;;;;;;;;;4990299;28;19910;-79
2022/10/15 02:01:21;;;;;;;;;;;;;;;;;;4991386;28;19917;-78
2022/10/15 02:04:07;;;;;;;;;;;;;;;;;;4987707;28;19909;-78
2022/10/15 02:06:54;;;;;;;;;;;;;;;;;;4991472;28;19921;-78
2022/10/15 02:09:41;;;;;;;;;;;;;;;;;;4999348;28;19914;-78
2022/10/15 02:12:27;;;;;;;;;;;;;;;;;;4968469;28;20301;-78
2022/10/15 02:15:14;;;;;;;;;;;;;;;;;;4965446;28;19914;-78
2022/10/15 02:18:01;;;;;;;;;;;;;;;;;;4971813;28;19914;-78
2022/10/15 02:20:47;;;;;;;;;;;;;;;;;;4972401;28;19929;-78
2022/10/15 02:23:34;;;;;;;;;;;;;;;;;;4975095;28;19910;-78
2022/10/15 02:26:20;;;;;;;;;;;;;;;;;;4971142;28;19918;-78
2022/10/15 02:29:07;;;;;;;;;;;;;;;;;;4970023;28;19987;-78
2022/10/15 02:31:53;;;;;;;;;;;;;;;;;;4972320;28;20374;-78
2022/10/15 02:34:40;;;;;;;;;;;;;;;;;;4972025;28;20318;-78
2022/10/15 02:37:26;;;;;;;;;;;;;;;;;;4974236;28;19921;-78
2022/10/15 02:40:13;;;;;;;;;;;;;;;;;;4970445;28;19914;-79
2022/10/15 02:42:59;;;;;;;;;;;;;;;;;;4972253;28;20255;-78
2022/10/15 02:45:46;;;;;;;;;;;;;;;;;;4973277;28;19928;-78
2022/10/15 02:48:32;;;;;;;;;;;;;;;;;;4968917;28;19917;-79
2022/10/15 02:51:19;;;;;;;;;;;;;;;;;;4970487;28;19918;-79
2022/10/15 02:54:05;;;;;;;;;;;;;;;;;;4971761;28;19926;-77
2022/10/15 02:56:52;;;;;;;;;;;;;;;;;;4974107;28;20285;-76
2022/10/15 02:59:39;;;;;;;;;;;;;;;;;;4977904;28;19914;-76
2022/10/15 03:02:25;;;;;;;;;;;;;;;;;;4969314;28;20297;-77
2022/10/15 03:05:12;;;;;;;;;;;;;;;;;;4983507;28;19917;-79
2022/10/15 03:07:58;;;;;;;;;;;;;;;;;;4968669;28;20303;-78
2022/10/15 03:10:45;;;;;;;;;;;;;;;;;;4967124;28;19924;-78
2022/10/15 03:13:31;;;;;;;;;;;;;;;;;;5000076;28;19928;-78
2022/10/15 03:16:18;;;;;;;;;;;;;;;;;;4988909;28;19914;-78
2022/10/15 03:19:04;;;;;;;;;;;;;;;;;;4987825;28;19913;-78
2022/10/15 03:21:51;;;;;;;;;;;;;;;;;;4976428;28;20364;-78
2022/10/15 03:24:37;;;;;;;;;;;;;;;;;;4978182;28;19917;-77
2022/10/15 03:27:24;;;;;;;;;;;;;;;;;;4988500;28;20388;-77
2022/10/15 03:30:10;;;;;;;;;;;;;;;;;;4976546;28;19918;-78
2022/10/15 03:32:57;;;;;;;;;;;;;;;;;;4980354;28;19933;-78
2022/10/15 03:35:43;;;;;;;;;;;;;;;;;;4974895;28;19925;-78
2022/10/15 03:38:30;;;;;;;;;;;;;;;;;;4975838;28;19922;-78
2022/10/15 03:41:16;;;;;;;;;;;;;;;;;;4980152;28;19925;-78
2022/10/15 03:44:03;;;;;;;;;;;;;;;;;;4989324;28;19910;-78
2022/10/15 03:46:50;;;;;;;;;;;;;;;;;;4978252;28;20246;-79
2022/10/15 03:49:37;;;;;;;;;;;;;;;;;;4983852;28;19921;-79
2022/10/15 03:52:23;;;;;;;;;;;;;;;;;;4977381;28;19932;-79
2022/10/15 03:55:10;;;;;;;;;;;;;;;;;;4983421;28;19918;-79
2022/10/15 03:57:56;;;;;;;;;;;;;;;;;;4985045;28;19924;-78
2022/10/15 04:00:43;;;;;;;;;;;;;;;;;;4985891;28;19944;-78
2022/10/15 04:03:29;;;;;;;;;;;;;;;;;;4988404;28;19916;-78
2022/10/15 04:06:16;;;;;;;;;;;;;;;;;;4988351;28;19918;-79
2022/10/15 04:09:02;;;;;;;;;;;;;;;;;;4988093;28;20313;-78
2022/10/15 04:11:48;;;;;;;;;;;;;;;;;;4985925;28;19936;-77
2022/10/15 04:14:35;;;;;;;;;;;;;;;;;;4970340;28;19928;-77
2022/10/15 04:17:21;;;;;;;;;;;;;;;;;;4975180;28;20284;-77
2022/10/15 04:20:08;;;;;;;;;;;;;;;;;;4982068;28;19910;-78
2022/10/15 04:22:54;;;;;;;;;;;;;;;;;;4979590;28;19910;-78
2022/10/15 04:25:41;;;;;;;;;;;;;;;;;;4983351;28;19909;-77
2022/10/15 04:28:28;;;;;;;;;;;;;;;;;;4989436;28;19944;-78
2022/10/15 04:31:14;;;;;;;;;;;;;;;;;;4978711;28;19921;-78
2022/10/15 04:34:01;;;;;;;;;;;;;;;;;;4983020;28;19948;-77
2022/10/15 04:36:47;;;;;;;;;;;;;;;;;;4986342;28;19922;-77
2022/10/15 04:39:34;;;;;;;;;;;;;;;;;;4982308;28;19924;-78
2022/10/15 04:42:20;;;;;;;;;;;;;;;;;;4996716;28;19936;-77
2022/10/15 04:45:07;;;;;;;;;;;;;;;;;;4990225;28;19915;-77
2022/10/15 04:47:53;;;;;;;;;;;;;;;;;;4992391;28;19917;-78
2022/10/15 04:50:40;;;;;;;;;;;;;;;;;;4992023;28;19917;-78
2022/10/15 04:53:26;;;;;;;;;;;;;;;;;;4992238;28;19922;-79
2022/10/15 04:56:14;;;;;;;;;;;;;;;;;;4982193;28;19930;-78
2022/10/15 04:59:00;;;;;;;;;;;;;;;;;;4977677;28;19920;-79
2022/10/15 05:01:47;;;;;;;;;;;;;;;;;;4992755;28;19932;-78
2022/10/15 05:04:33;;;;;;;;;;;;;;;;;;4986300;28;20292;-79
2022/10/15 05:07:20;;;;;;;;;;;;;;;;;;4981563;28;19929;-79
2022/10/15 05:10:06;;;;;;;;;;;;;;;;;;4984068;28;19992;-78
2022/10/15 05:12:53;;;;;;;;;;;;;;;;;;4991306;28;19926;-78
2022/10/15 05:15:39;;;;;;;;;;;;;;;;;;4977519;28;19925;-78
2022/10/15 05:18:26;;;;;;;;;;;;;;;;;;4992370;28;19920;-79
2022/10/15 05:21:12;;;;;;;;;;;;;;;;;;4984344;28;20372;-78
2022/10/15 05:23:59;;;;;;;;;;;;;;;;;;4983786;28;19921;-78
2022/10/15 05:26:45;;;;;;;;;;;;;;;;;;4979265;28;19914;-78
2022/10/15 05:29:32;;;;;;;;;;;;;;;;;;4992725;28;19914;-78
2022/10/15 05:32:18;;;;;;;;;;;;;;;;;;4987099;28;19940;-78
2022/10/15 05:35:05;;;;;;;;;;;;;;;;;;4977354;28;19917;-79
2022/10/15 05:37:51;;;;;;;;;;;;;;;;;;4983154;28;19914;-76
2022/10/15 05:40:38;;;;;;;;;;;;;;;;;;4987796;28;19918;-77
2022/10/15 05:43:24;;;;;;;;;;;;;;;;;;4973620;28;19913;-77
2022/10/15 05:46:11;;;;;;;;;;;;;;;;;;4972473;28;19924;-77
2022/10/15 05:48:57;;;;;;;;;;;;;;;;;;4978136;28;20348;-77
2022/10/15 05:51:44;;;;;;;;;;;;;;;;;;4981217;28;19940;-77
2022/10/15 05:54:31;;;;;;;;;;;;;;;;;;4972716;28;19942;-76
2022/10/15 05:57:17;;;;;;;;;;;;;;;;;;4987909;28;19918;-77
2022/10/15 06:00:04;;;;;;;;;;;;;;;;;;4996432;28;19914;-76
2022/10/15 06:02:50;;;;;;;;;;;;;;;;;;4984545;28;19925;-76
2022/10/15 06:05:37;;;;;;;;;;;;;;;;;;4985957;28;19918;-76
2022/10/15 06:08:23;;;;;;;;;;;;;;;;;;4997860;28;20349;-77
2022/10/15 06:11:10;;;;;;;;;;;;;;;;;;4975340;28;20365;-76
2022/10/15 06:13:56;;;;;;;;;;;;;;;;;;4972235;28;19933;-77
2022/10/15 06:16:43;;;;;;;;;;;;;;;;;;4956989;28;20370;-76
2022/10/15 06:19:29;;;;;;;;;;;;;;;;;;4962373;28;19911;-76
2022/10/15 06:22:16;;;;;;;;;;;;;;;;;;4956830;28;20392;-76
2022/10/15 06:25:02;;;;;;;;;;;;;;;;;;4971183;28;19914;-76
2022/10/15 06:27:49;;;;;;;;;;;;;;;;;;4966795;28;20230;-75
2022/10/15 06:30:35;;;;;;;;;;;;;;;;;;4970925;28;19929;-76
2022/10/15 06:33:22;;;;;;;;;;;;;;;;;;4968398;28;20392;-76
2022/10/15 06:36:08;;;;;;;;;;;;;;;;;;4957260;28;19932;-76
2022/10/15 06:38:54;;;;;;;;;;;;;;;;;;4950594;28;19915;-77
2022/10/15 06:41:41;;;;;;;;;;;;;;;;;;4968615;28;21310;-77
2022/10/15 06:44:27;;;;;;;;;;;;;;;;;;4967328;28;19921;-77
2022/10/15 06:47:14;;;;;;;;;;;;;;;;;;4958440;28;20658;-77
2022/10/15 06:50:00;;;;;;;;;;;;;;;;;;4959655;28;19914;-78
2022/10/15 06:52:47;;;;;;;;;;;;;;;;;;4956131;28;19942;-77
2022/10/15 06:55:33;;;;;;;;;;;;;;;;;;4965377;28;19914;-76
2022/10/15 06:58:20;;;;;;;;;;;;;;;;;;4952482;28;19940;-78
2022/10/15 07:01:07;;;;;;;;;;;;;;;;;;4966936;28;20235;-77
2022/10/15 07:03:54;;;;;;;;;;;;;;;;;;4962388;28;19918;-77
2022/10/15 07:06:40;;;;;;;;;;;;;;;;;;4961280;28;19918;-77
2022/10/15 07:09:27;;;;;;;;;;;;;;;;;;4968936;28;19922;-77
2022/10/15 07:12:15;;;;;;;;;;;;;;;;;;4981520;28;20342;-78
2022/10/15 07:15:01;;;;;;;;;;;;;;;;;;4976841;28;19925;-78
2022/10/15 07:17:48;;;;;;;;;;;;;;;;;;4978570;28;19922;-77
2022/10/15 07:20:34;;;;;;;;;;;;;;;;;;4981881;28;20313;-78
2022/10/15 07:23:21;;;;;;;;;;;;;;;;;;4988436;28;19918;-77
2022/10/15 07:26:07;;;;;;;;;;;;;;;;;;4976401;28;19910;-78
2022/10/15 07:28:54;;;;;;;;;;;;;;;;;;4985210;28;19925;-78
2022/10/15 07:31:40;;;;;;;;;;;;;;;;;;4988672;28;19918;-76
2022/10/15 07:34:27;;;;;;;;;;;;;;;;;;4979960;28;19929;-76
2022/10/15 07:37:13;;;;;;;;;;;;;;;;;;4995086;28;19921;-76
2022/10/15 07:40:00;;;;;;;;;;;;;;;;;;4984385;28;19924;-77
2022/10/15 07:42:46;;;;;;;;;;;;;;;;;;4983614;28;19921;-77
2022/10/15 07:45:33;;;;;;;;;;;;;;;;;;4978438;28;20304;-77
2022/10/15 07:48:19;;;;;;;;;;;;;;;;;;4986532;28;19913;-77
2022/10/15 07:51:06;;;;;;;;;;;;;;;;;;4982732;28;19917;-77
2022/10/15 07:53:52;;;;;;;;;;;;;;;;;;4983813;28;19922;-76
2022/10/15 07:56:39;;;;;;;;;;;;;;;;;;4968845;28;19918;-78
2022/10/15 07:59:25;;;;;;;;;;;;;;;;;;4972274;28;19922;-77
2022/10/15 08:02:12;;;;;;;;;;;;;;;;;;4985296;28;19914;-77
2022/10/15 08:04:58;;;;;;;;;;;;;;;;;;4983975;28;19913;-77
2022/10/15 08:07:45;;;;;;;;;;;;;;;;;;4980922;28;20688;-77
2022/10/15 08:10:31;;;;;;;;;;;;;;;;;;4986260;28;19917;-78
2022/10/15 08:12:58;;;;;;;;;;;;;;;;;;4977088;28;19930;-78
2022/10/15 08:15:27;;;;;;;;;;;;;;;;;;4968892;28;19918;-80
2022/10/15 08:17:53;;;;;;;;;;;;;;;;;;4965505;28;19918;-78
2022/10/15 08:20:19;;;;;;;;;;;;;;;;;;4980289;28;19960;-79
2022/10/15 08:22:45;;;;;;;;;;;;;;;;;;4970954;28;19926;-77
2022/10/15 08:25:12;;;;;;;;;;;;;;;;;;4977783;28;19944;-78
2022/10/15 08:27:38;;;;;;;;;;;;;;;;;;4963866;28;19984;-78
2022/10/15 08:30:04;;;;;;;;;;;;;;;;;;4969523;28;19968;-77
2022/10/15 08:32:30;;;;;;;;;;;;;;;;;;4976456;28;19961;-77
2022/10/15 08:34:56;;;;;;;;;;;;;;;;;;4968895;28;19976;-78
2022/10/15 08:37:25;;;;;;;;;;;;;;;;;;4966891;28;19918;-77
2022/10/15 08:39:52;;;;;;;;;;;;;;;;;;4969312;28;19968;-78
2022/10/15 08:42:18;;;;;;;;;;;;;;;;;;4966142;28;19953;-77
2022/10/15 08:44:47;;;;;;;;;;;;;;;;;;4962438;28;19928;-78
2022/10/15 08:47:13;;;;;;;;;;;;;;;;;;4970481;28;20023;-77
2022/10/15 08:49:39;;;;;;;;;;;;;;;;;;4973119;28;19918;-82
2022/10/15 08:52:06;;;;;;;;;;;;;;;;;;4951710;28;19926;-82
2022/10/15 08:54:35;;;;;;;;;;;;;;;;;;4958807;28;19969;-83
2022/10/15 08:57:01;;;;;;;;;;;;;;;;;;4973659;28;19968;-80
2022/10/15 08:59:27;;;;;;;;;;;;;;;;;;4956580;28;19918;-81
2022/10/15 09:01:53;;;;;;;;;;;;;;;;;;4973234;28;19941;-82
2022/10/15 09:04:20;;;;;;;;;;;;;;;;;;4970395;28;20407;-81
2022/10/15 09:06:46;;;;;;;;;;;;;;;;;;4967819;28;19921;-82
2022/10/15 09:09:12;;;;;;;;;;;;;;;;;;4968765;28;19957;-81
2022/10/15 09:11:39;;;;;;;;;;;;;;;;;;4983033;28;19930;-82
2022/10/15 09:14:23;;;;;;;;;;;;;;;;;;4961919;28;20293;-80
2022/10/15 09:16:50;;;;;;;;;;;;;;;;;;4961426;28;19961;-82
2022/10/15 09:19:17;;;;;;;;;;;;;;;;;;4971555;28;19964;-82
2022/10/15 09:21:43;;;;;;;;;;;;;;;;;;4983642;28;19957;-81
2022/10/15 09:24:09;;;;;;;;;;;;;;;;;;4969651;28;19918;-82
2022/10/15 09:26:35;;;;;;;;;;;;;;;;;;4958097;28;20284;-82
2022/10/15 09:29:02;;;;;;;;;;;;;;;;;;4988745;28;19957;-83
2022/10/15 09:31:28;;;;;;;;;;;;;;;;;;4960241;28;19945;-82
2022/10/15 09:33:54;;;;;;;;;;;;;;;;;;4977592;28;19921;-82
2022/10/15 09:36:20;;;;;;;;;;;;;;;;;;4960624;28;19922;-81
2022/10/15 09:38:47;;;;;;;;;;;;;;;;;;4987914;28;19961;-82
2022/10/15 09:41:15;;;;;;;;;;;;;;;;;;4986446;28;19929;-81
2022/10/15 09:43:41;;;;;;;;;;;;;;;;;;4963576;28;19968;-81
2022/10/15 09:46:07;;;;;;;;;;;;;;;;;;4974477;28;20314;-82
2022/10/15 09:48:33;;;;;;;;;;;;;;;;;;4972065;28;19918;-82
2022/10/15 09:50:59;;;;;;;;;;;;;;;;;;4972391;28;19952;-82
2022/10/15 09:53:26;;;;;;;;;;;;;;;;;;4970631;28;19960;-80
2022/10/15 09:55:52;;;;;;;;;;;;;;;;;;4965200;28;19922;-81
2022/10/15 09:58:18;;;;;;;;;;;;;;;;;;4943856;28;19956;-82
2022/10/15 10:00:44;;;;;;;;;;;;;;;;;;4952811;28;19973;-82
2022/10/15 10:03:11;;;;;;;;;;;;;;;;;;4980837;28;19925;-82
2022/10/15 10:05:37;;;;;;;;;;;;;;;;;;4983371;28;19940;-81
2022/10/15 10:08:04;;;;;;;;;;;;;;;;;;4983115;28;20013;-82
2022/10/15 10:10:31;;;;;;;;;;;;;;;;;;4973539;28;19964;-81
2022/10/15 10:12:58;;;;;;;;;;;;;;;;;;4989896;28;19937;-81
2022/10/15 10:15:24;;;;;;;;;;;;;;;;;;4965542;28;19922;-80
2022/10/15 10:17:50;;;;;;;;;;;;;;;;;;4981447;28;19958;-81
2022/10/15 10:20:16;;;;;;;;;;;;;;;;;;4988984;28;19945;-82
2022/10/15 10:22:42;;;;;;;;;;;;;;;;;;4993788;28;19970;-81
2022/10/15 10:25:08;;;;;;;;;;;;;;;;;;4955821;28;19948;-81
2022/10/15 10:27:35;;;;;;;;;;;;;;;;;;4971351;28;20330;-81
2022/10/15 10:30:01;;;;;;;;;;;;;;;;;;4962589;28;19957;-81
2022/10/15 10:32:27;;;;;;;;;;;;;;;;;;4988991;28;19968;-80
2022/10/15 10:34:53;;;;;;;;;;;;;;;;;;4988830;28;19977;-81
2022/10/15 10:37:20;;;;;;;;;;;;;;;;;;4976574;28;20385;-81
2022/10/15 10:39:46;;;;;;;;;;;;;;;;;;4965041;28;19923;-81
2022/10/15 10:42:12;;;;;;;;;;;;;;;;;;4956437;28;19949;-82
2022/10/15 10:44:38;;;;;;;;;;;;;;;;;;4981663;28;19914;-82
2022/10/15 10:47:05;;;;;;;;;;;;;;;;;;4956168;28;19961;-82
2022/10/15 10:49:32;;;;;;;;;;;;;;;;;;4971027;28;19918;-81
2022/10/15 10:51:59;;;;;;;;;;;;;;;;;;4953574;28;20004;-81
2022/10/15 10:54:25;;;;;;;;;;;;;;;;;;4984733;28;19960;-81
2022/10/15 10:56:52;;;;;;;;;;;;;;;;;;4955957;28;19961;-81
2022/10/15 10:59:19;;;;;;;;;;;;;;;;;;4955871;28;20045;-81
2022/10/15 11:01:45;;;;;;;;;;;;;;;;;;4971777;28;19965;-81
2022/10/15 11:04:11;;;;;;;;;;;;;;;;;;4972319;28;20590;-81
2022/10/15 11:06:37;;;;;;;;;;;;;;;;;;4977007;28;19921;-81
2022/10/15 11:09:04;;;;;;;;;;;;;;;;;;4969847;28;19969;-84
2022/10/15 11:11:30;;;;;;;;;;;;;;;;;;4932511;28;19976;-81
2022/10/15 11:13:56;;;;;;;;;;;;;;;;;;4956258;28;20012;-81
2022/10/15 11:16:23;;;;;;;;;;;;;;;;;;4971860;28;19957;-81
2022/10/15 11:18:49;;;;;;;;;;;;;;;;;;4972154;28;20361;-81
2022/10/15 11:21:16;;;;;;;;;;;;;;;;;;4985539;28;19922;-81
2022/10/15 11:23:42;;;;;;;;;;;;;;;;;;4984645;28;20390;-81
2022/10/15 11:26:08;;;;;;;;;;;;;;;;;;4970448;28;19949;-82
2022/10/15 11:28:35;;;;;;;;;;;;;;;;;;4986610;28;19964;-81
2022/10/15 11:31:01;;;;;;;;;;;;;;;;;;4968654;28;20312;-83
2022/10/15 11:33:30;;;;;;;;;;;;;;;;;;4972164;28;19926;-81
2022/10/15 11:35:56;;;;;;;;;;;;;;;;;;4981531;28;19989;-82
2022/10/15 11:38:23;;;;;;;;;;;;;;;;;;4954400;28;20288;-82
2022/10/15 11:40:49;;;;;;;;;;;;;;;;;;4957350;28;19957;-82
2022/10/15 11:43:16;;;;;;;;;;;;;;;;;;4965069;28;19922;-82
2022/10/15 11:45:42;;;;;;;;;;;;;;;;;;4960771;28;19948;-82
2022/10/15 11:48:09;;;;;;;;;;;;;;;;;;4975675;28;19949;-82
2022/10/15 11:50:35;;;;;;;;;;;;;;;;;;4964020;28;19917;-82
2022/10/15 11:53:01;;;;;;;;;;;;;;;;;;4962323;28;19941;-82
2022/10/15 11:55:28;;;;;;;;;;;;;;;;;;4962422;28;19941;-81
2022/10/15 11:57:54;;;;;;;;;;;;;;;;;;4967590;28;19953;-82
2022/10/15 12:00:20;;;;;;;;;;;;;;;;;;4958806;28;19926;-82
2022/10/15 12:02:47;;;;;;;;;;;;;;;;;;4983472;28;20337;-81
2022/10/15 12:05:13;;;;;;;;;;;;;;;;;;4988625;28;19917;-81
2022/10/15 12:07:39;;;;;;;;;;;;;;;;;;4980445;28;20404;-82
2022/10/15 12:10:05;;;;;;;;;;;;;;;;;;4971042;28;19922;-82
2022/10/15 12:12:32;;;;;;;;;;;;;;;;;;4969904;28;20322;-81
2022/10/15 12:14:59;;;;;;;;;;;;;;;;;;4972439;28;20080;-81
2022/10/15 12:17:25;;;;;;;;;;;;;;;;;;4952306;28;19964;-81
2022/10/15 12:19:53;;;;;;;;;;;;;;;;;;4964548;28;19918;-81
2022/10/15 12:22:20;;;;;;;;;;;;;;;;;;4980233;28;19929;-83
2022/10/15 12:24:49;;;;;;;;;;;;;;;;;;4962100;28;20330;-81
2022/10/15 12:27:15;;;;;;;;;;;;;;;;;;4942773;28;19953;-81
2022/10/15 12:29:41;;;;;;;;;;;;;;;;;;4956916;28;19936;-82
2022/10/15 12:32:07;;;;;;;;;;;;;;;;;;4966572;28;19961;-81
2022/10/15 12:34:33;;;;;;;;;;;;;;;;;;4978208;28;19980;-81
2022/10/15 12:37:00;;;;;;;;;;;;;;;;;;4967658;28;19964;-82
2022/10/15 12:39:26;;;;;;;;;;;;;;;;;;4973029;28;19922;-80
2022/10/15 12:41:52;;;;;;;;;;;;;;;;;;4967527;28;19918;-80
2022/10/15 12:44:18;;;;;;;;;;;;;;;;;;4986349;28;19965;-90
2022/10/15 12:46:44;;;;;;;;;;;;;;;;;;4965412;28;19979;-88
2022/10/15 12:49:11;;;;;;;;;;;;;;;;;;4984708;28;19972;-88
2022/10/15 12:51:37;;;;;;;;;;;;;;;;;;4971440;28;19964;-89
2022/10/15 12:54:03;;;;;;;;;;;;;;;;;;4987491;28;19926;-88
2022/10/15 12:56:29;;;;;;;;;;;;;;;;;;4971386;28;20519;-87
2022/10/15 12:58:56;;;;;;;;;;;;;;;;;;4972374;28;19946;-87
2022/10/15 13:01:22;;;;;;;;;;;;;;;;;;4980317;28;19929;-85
2022/10/15 13:03:49;;;;;;;;;;;;;;;;;;4978625;28;19964;-85
2022/10/15 13:06:15;;;;;;;;;;;;;;;;;;4990130;28;19949;-85
2022/10/15 13:08:41;;;;;;;;;;;;;;;;;;4979593;28;19949;-85
2022/10/15 13:11:07;;;;;;;;;;;;;;;;;;4989883;28;20016;-82
2022/10/15 13:13:34;;;;;;;;;;;;;;;;;;4962407;28;19973;-83
2022/10/15 13:16:00;;;;;;;;;;;;;;;;;;4955876;28;19958;-84
2022/10/15 13:18:26;;;;;;;;;;;;;;;;;;4955332;28;19954;-83
2022/10/15 13:20:55;;;;;;;;;;;;;;;;;;4945635;28;19918;-83
2022/10/15 13:23:21;;;;;;;;;;;;;;;;;;4950853;28;19918;-84
2022/10/15 13:25:47;;;;;;;;;;;;;;;;;;4943531;28;19965;-85
2022/10/15 13:28:13;;;;;;;;;;;;;;;;;;4954535;28;20024;-84
2022/10/15 13:30:40;;;;;;;;;;;;;;;;;;4952340;28;20270;-83
2022/10/15 13:33:06;;;;;;;;;;;;;;;;;;4947904;28;19973;-84
2022/10/15 13:35:33;;;;;;;;;;;;;;;;;;4960711;28;19962;-84
2022/10/15 13:37:59;;;;;;;;;;;;;;;;;;4958796;28;20672;-84
2022/10/15 13:40:26;;;;;;;;;;;;;;;;;;4963275;28;19922;-84
2022/10/15 13:42:52;;;;;;;;;;;;;;;;;;4937663;28;19998;-84
2022/10/15 13:45:18;;;;;;;;;;;;;;;;;;4944369;28;20339;-83
2022/10/15 13:47:44;;;;;;;;;;;;;;;;;;4966866;28;19918;-83
2022/10/15 13:50:10;;;;;;;;;;;;;;;;;;4962304;28;19923;-85
2022/10/15 13:52:37;;;;;;;;;;;;;;;;;;4943291;28;19938;-84
2022/10/15 13:55:03;;;;;;;;;;;;;;;;;;4970099;28;20034;-85
2022/10/15 13:57:29;;;;;;;;;;;;;;;;;;4954636;28;19949;-83
2022/10/15 13:59:55;;;;;;;;;;;;;;;;;;4946519;28;19926;-85
2022/10/15 14:02:23;;;;;;;;;;;;;;;;;;4955503;28;20106;-84
2022/10/15 14:04:53;;;;;;;;;;;;;;;;;;4941302;28;19949;-86
2022/10/15 14:07:19;;;;;;;;;;;;;;;;;;4942299;28;20369;-86
2022/10/15 14:09:46;;;;;;;;;;;;;;;;;;4963603;28;20018;-86
2022/10/15 14:12:13;;;;;;;;;;;;;;;;;;4979320;28;20567;-85
2022/10/15 14:14:45;;;;;;;;;;;;;;;;;;4958771;28;19949;-85
2022/10/15 14:17:16;;;;;;;;;;;;;;;;;;4991285;28;19952;-86
2022/10/15 14:19:42;;;;;;;;;;;;;;;;;;4971968;28;19961;-86
2022/10/15 14:22:08;;;;;;;;;;;;;;;;;;4973530;28;19940;-85
2022/10/15 14:24:35;;;;;;;;;;;;;;;;;;4985765;28;20346;-85
2022/10/15 14:27:01;;;;;;;;;;;;;;;;;;4967374;28;19961;-84
2022/10/15 14:29:27;;;;;;;;;;;;;;;;;;4969365;28;19941;-86
2022/10/15 14:31:53;;;;;;;;;;;;;;;;;;4965204;28;19945;-86
2022/10/15 14:34:19;;;;;;;;;;;;;;;;;;4976214;28;19957;-84
2022/10/15 14:36:46;;;;;;;;;;;;;;;;;;4966162;28;20417;-85
2022/10/15 14:39:12;;;;;;;;;;;;;;;;;;4953202;28;19922;-84
2022/10/15 14:41:38;;;;;;;;;;;;;;;;;;4978287;28;19960;-84
2022/10/15 14:44:04;;;;;;;;;;;;;;;;;;4981664;28;19926;-84
2022/10/15 14:46:31;;;;;;;;;;;;;;;;;;4983225;28;19961;-85
2022/10/15 14:48:57;;;;;;;;;;;;;;;;;;4969820;28;20524;-85
2022/10/15 14:51:23;;;;;;;;;;;;;;;;;;4983357;28;19926;-85
2022/10/15 14:53:49;;;;;;;;;;;;;;;;;;4975879;28;19965;-83
2022/10/15 14:56:15;;;;;;;;;;;;;;;;;;4980005;28;20654;-81
2022/10/15 14:58:42;;;;;;;;;;;;;;;;;;4985433;28;19954;-80
2022/10/15 15:01:08;;;;;;;;;;;;;;;;;;4975146;28;19972;-79
2022/10/15 15:03:34;;;;;;;;;;;;;;;;;;4979170;28;19957;-79
2022/10/15 15:06:00;;;;;;;;;;;;;;;;;;4983564;28;19961;-79
2022/10/15 15:08:27;;;;;;;;;;;;;;;;;;4981874;28;19952;-79
2022/10/15 15:10:53;;;;;;;;;;;;;;;;;;4967626;28;19957;-80
2022/10/15 15:13:19;;;;;;;;;;;;;;;;;;4971923;28;20004;-80
2022/10/15 15:15:46;;;;;;;;;;;;;;;;;;4985908;28;19930;-80
2022/10/15 15:18:12;;;;;;;;;;;;;;;;;;4988379;28;19949;-79
2022/10/15 15:20:38;;;;;;;;;;;;;;;;;;4968602;28;19956;-85
2022/10/15 15:23:04;;;;;;;;;;;;;;;;;;4970217;28;19972;-82
2022/10/15 15:25:32;;;;;;;;;;;;;;;;;;4971732;28;19960;-82
2022/10/15 15:27:58;;;;;;;;;;;;;;;;;;4952601;28;19968;-85
2022/10/15 15:30:25;;;;;;;;;;;;;;;;;;4982561;28;19918;-85
2022/10/15 15:36:01;;;;;;;;;;;;;;;;;;4934834;28;20400;-83
2022/10/15 15:38:40;;;;;;;;;;;;;;;;;;4941559;28;19930;-84
2022/10/15 15:41:09;;;;;;;;;;;;;;;;;;4965919;28;19954;-85
2022/10/15 15:46:31;;;;;;;;;;;;;;;;;;4928822;28;20727;-82
2022/10/15 15:48:57;;;;;;;;;;;;;;;;;;4954768;28;19936;-82
2022/10/15 15:51:24;;;;;;;;;;;;;;;;;;4978535;28;19958;-82
2022/10/15 15:53:51;;;;;;;;;;;;;;;;;;4964822;28;19980;-80
2022/10/15 15:56:18;;;;;;;;;;;;;;;;;;4971341;28;20376;-82
2022/10/15 15:58:44;;;;;;;;;;;;;;;;;;4960698;28;19918;-83
2022/10/15 16:01:26;;;;;;;;;;;;;;;;;;4958036;28;20621;-81
2022/10/15 16:03:52;;;;;;;;;;;;;;;;;;4985959;28;19950;-86
2022/10/15 16:06:24;;;;;;;;;;;;;;;;;;4948808;28;19961;-87
2022/10/15 16:09:11;;;;;;;;;;;;;;;;;;4934562;28;20424;-83
2022/10/15 16:11:40;;;;;;;;;;;;;;;;;;4915262;28;20433;-82
2022/10/15 16:14:07;;;;;;;;;;;;;;;;;;4907340;28;19935;-82
2022/10/15 16:16:34;;;;;;;;;;;;;;;;;;4973329;28;19953;-81
2022/10/15 16:19:06;;;;;;;;;;;;;;;;;;4975503;28;19922;-81
2022/10/15 16:21:35;;;;;;;;;;;;;;;;;;4949162;28;19940;-86
2022/10/15 16:27:33;;;;;;;;;;;;;;;;;;4880931;29;19930;-88
2022/10/15 16:35:52;;;;;;;;;;;;;;;;;;4926044;28;19926;-77
2022/10/15 16:38:21;;;;;;;;;;;;;;;;;;4960616;28;20009;-78
2022/10/15 16:40:50;;;;;;;;;;;;;;;;;;4908542;28;19926;-77
2022/10/15 16:43:17;;;;;;;;;;;;;;;;;;4950928;28;19929;-79
2022/10/15 16:45:55;;;;;;;;;;;;;;;;;;4918729;28;20017;-77
2022/10/15 16:51:28;;;;;;;;;;;;;;;;;;4959949;28;19921;-79
2022/10/15 16:53:57;;;;;;;;;;;;;;;;;;4944443;28;19940;-79
2022/10/15 16:56:23;;;;;;;;;;;;;;;;;;4976504;28;20020;-84
2022/10/15 16:58:50;;;;;;;;;;;;;;;;;;4986609;28;20374;-85
2022/10/15 17:01:16;;;;;;;;;;;;;;;;;;4963941;28;20378;-83
2022/10/15 17:03:42;;;;;;;;;;;;;;;;;;4976920;28;19957;-81
2022/10/15 17:06:11;;;;;;;;;;;;;;;;;;4979663;28;19961;-82
2022/10/15 17:08:38;;;;;;;;;;;;;;;;;;4988317;28;19922;-82
2022/10/15 17:11:04;;;;;;;;;;;;;;;;;;4966014;28;20381;-82
2022/10/15 17:13:31;;;;;;;;;;;;;;;;;;4974253;28;19976;-82
2022/10/15 17:15:57;;;;;;;;;;;;;;;;;;4976494;28;20373;-83
2022/10/15 17:18:23;;;;;;;;;;;;;;;;;;4977235;28;19922;-83
2022/10/15 17:20:49;;;;;;;;;;;;;;;;;;4969813;28;19957;-82
2022/10/15 17:23:16;;;;;;;;;;;;;;;;;;4977580;28;20008;-81
2022/10/15 17:25:42;;;;;;;;;;;;;;;;;;4978077;28;19980;-80
2022/10/15 17:28:08;;;;;;;;;;;;;;;;;;4964368;28;20363;-82
2022/10/15 17:30:35;;;;;;;;;;;;;;;;;;4976725;28;19957;-88
2022/10/15 17:33:01;;;;;;;;;;;;;;;;;;4993374;28;19976;-83
2022/10/15 17:35:30;;;;;;;;;;;;;;;;;;4959309;28;19957;-81
2022/10/15 17:37:56;;;;;;;;;;;;;;;;;;4974102;28;20724;-82
2022/10/15 17:40:23;;;;;;;;;;;;;;;;;;5000880;28;19969;-84
2022/10/15 17:42:49;;;;;;;;;;;;;;;;;;4982085;28;20314;-83
2022/10/15 17:45:15;;;;;;;;;;;;;;;;;;4964551;28;19922;-86
2022/10/15 17:47:41;;;;;;;;;;;;;;;;;;4983366;28;19985;-85
2022/10/15 17:50:08;;;;;;;;;;;;;;;;;;4969214;28;19960;-85
2022/10/15 17:52:34;;;;;;;;;;;;;;;;;;4983639;28;20436;-85
2022/10/15 17:55:00;;;;;;;;;;;;;;;;;;4981724;28;20397;-80
2022/10/15 17:57:26;;;;;;;;;;;;;;;;;;4972271;28;20413;-88
2022/10/15 17:59:53;;;;;;;;;;;;;;;;;;4963763;28;19925;-88